createdAt,value
2022-12-03T00:00:54.039Z,55.6
2022-12-03T00:02:37.650Z,55.6
2022-12-03T00:04:21.410Z,55.5
2022-12-03T00:06:05.080Z,55.5
2022-12-03T00:07:48.777Z,55.5
2022-12-03T00:09:32.474Z,55.4
2022-12-03T00:11:16.194Z,55.4
2022-12-03T00:12:59.880Z,55.4
2022-12-03T00:14:43.558Z,55.4
2022-12-03T00:16:27.271Z,55.4
2022-12-03T00:18:11.035Z,55.4
2022-12-03T00:19:54.689Z,55.3
2022-12-03T00:21:38.386Z,55.3
2022-12-03T00:23:22.210Z,55.4
2022-12-03T00:25:05.787Z,55.3
2022-12-03T00:26:49.527Z,55.3
2022-12-03T00:28:33.316Z,55.3
2022-12-03T00:30:16.941Z,55.3
2022-12-03T00:32:00.621Z,55.2
2022-12-03T00:33:44.307Z,55.2
2022-12-03T00:35:28.011Z,55.2
2022-12-03T00:37:11.724Z,55.1
2022-12-03T00:38:55.386Z,55.2
2022-12-03T00:40:39.112Z,55.2
2022-12-03T00:42:22.821Z,55.2
2022-12-03T00:44:06.526Z,55.1
2022-12-03T00:45:50.213Z,55.2
2022-12-03T00:47:33.919Z,55.1
2022-12-03T00:49:17.611Z,55.1
2022-12-03T00:51:01.383Z,55
2022-12-03T00:52:45.021Z,55
2022-12-03T00:54:28.731Z,55
2022-12-03T00:56:12.512Z,55
2022-12-03T00:57:56.188Z,55
2022-12-03T00:59:39.855Z,55
2022-12-03T01:01:23.524Z,55
2022-12-03T01:03:07.235Z,54.9
2022-12-03T01:04:50.933Z,54.9
2022-12-03T01:06:34.651Z,54.9
2022-12-03T01:08:18.378Z,54.9
2022-12-03T01:10:02.049Z,54.9
2022-12-03T01:11:45.759Z,54.9
2022-12-03T01:13:29.492Z,54.9
2022-12-03T01:15:13.150Z,54.8
2022-12-03T01:16:56.840Z,54.8
2022-12-03T01:18:40.564Z,54.8
2022-12-03T01:20:24.282Z,54.8
2022-12-03T01:22:07.946Z,54.8
2022-12-03T01:23:51.642Z,54.8
2022-12-03T01:25:35.353Z,54.8
2022-12-03T01:27:19.094Z,54.8
2022-12-03T01:29:02.765Z,54.7
2022-12-03T01:30:46.573Z,54.7
2022-12-03T01:32:30.198Z,54.8
2022-12-03T01:34:13.883Z,54.7
2022-12-03T01:35:57.637Z,54.7
2022-12-03T01:37:41.277Z,54.7
2022-12-03T01:39:24.962Z,54.7
2022-12-03T01:41:08.692Z,54.7
2022-12-03T01:42:52.449Z,54.7
2022-12-03T01:44:36.074Z,54.7
2022-12-03T01:46:19.778Z,54.7
2022-12-03T01:48:03.481Z,54.7
2022-12-03T01:49:47.210Z,54.6
2022-12-03T01:51:30.915Z,54.6
2022-12-03T01:53:14.595Z,54.6
2022-12-03T01:54:58.363Z,54.6
2022-12-03T01:56:42.021Z,54.6
2022-12-03T01:58:25.711Z,54.6
2022-12-03T02:00:09.415Z,54.6
2022-12-03T02:01:53.110Z,54.6
2022-12-03T02:03:36.805Z,54.5
2022-12-03T02:05:20.596Z,54.5
2022-12-03T02:07:04.186Z,54.5
2022-12-03T02:08:47.908Z,54.5
2022-12-03T02:10:31.631Z,54.5
2022-12-03T02:12:15.323Z,54.5
2022-12-03T02:13:59.000Z,54.5
2022-12-03T02:15:42.695Z,54.5
2022-12-03T02:17:26.403Z,54.5
2022-12-03T02:19:10.122Z,54.5
2022-12-03T02:20:53.838Z,54.5
2022-12-03T02:22:37.522Z,54.4
2022-12-03T02:24:21.233Z,54.5
2022-12-03T02:26:04.919Z,54.5
2022-12-03T02:27:48.626Z,54.5
2022-12-03T02:29:32.324Z,54.5
2022-12-03T02:31:16.034Z,54.4
2022-12-03T02:32:59.729Z,54.4
2022-12-03T02:34:43.511Z,54.4
2022-12-03T02:36:27.116Z,54.4
2022-12-03T02:38:10.835Z,54.4
2022-12-03T02:39:54.542Z,54.4
2022-12-03T02:41:38.249Z,54.4
2022-12-03T02:43:21.950Z,54.4
2022-12-03T02:45:05.637Z,54.4
2022-12-03T02:46:49.410Z,54.4
2022-12-03T02:48:33.073Z,54.4
2022-12-03T02:50:16.760Z,54.4
2022-12-03T02:52:00.445Z,54.3
2022-12-03T02:53:44.159Z,54.3
2022-12-03T02:55:27.869Z,54.4
2022-12-03T02:58:55.249Z,54.3
2022-12-03T03:00:38.956Z,54.3
2022-12-03T03:02:22.685Z,54.3
2022-12-03T03:04:06.357Z,54.3
2022-12-03T03:05:50.151Z,54.3
2022-12-03T03:07:33.759Z,54.3
2022-12-03T03:09:17.467Z,54.3
2022-12-03T03:11:01.188Z,54.3
2022-12-03T03:12:44.887Z,54.3
2022-12-03T03:14:28.588Z,54.3
2022-12-03T03:16:12.299Z,54.3
2022-12-03T03:17:55.987Z,54.3
2022-12-03T03:19:39.764Z,54.3
2022-12-03T03:21:23.424Z,54.3
2022-12-03T03:23:07.101Z,54.3
2022-12-03T03:24:50.803Z,54.3
2022-12-03T03:26:34.502Z,54.2
2022-12-03T03:28:18.186Z,54.3
2022-12-03T03:30:01.892Z,54.3
2022-12-03T03:31:45.583Z,54.3
2022-12-03T03:33:29.358Z,54.2
2022-12-03T03:35:12.986Z,54.2
2022-12-03T03:36:56.789Z,54.2
2022-12-03T03:38:40.398Z,54.2
2022-12-03T03:40:24.200Z,54.2
2022-12-03T03:42:07.803Z,54.2
2022-12-03T03:43:51.523Z,54.2
2022-12-03T03:45:35.220Z,54.2
2022-12-03T03:49:02.630Z,54.2
2022-12-03T03:50:46.321Z,54.2
2022-12-03T03:52:30.041Z,54.2
2022-12-03T03:54:13.711Z,54.1
2022-12-03T03:55:57.414Z,54.1
2022-12-03T03:57:41.111Z,54.2
2022-12-03T03:59:24.816Z,54.2
2022-12-03T04:01:08.532Z,54.2
2022-12-03T04:02:52.240Z,54.2
2022-12-03T04:04:35.919Z,54.2
2022-12-03T04:06:19.637Z,54.1
2022-12-03T04:08:03.344Z,54.1
2022-12-03T04:09:47.047Z,54.2
2022-12-03T04:11:30.758Z,54.1
2022-12-03T04:13:14.493Z,54.1
2022-12-03T04:14:58.235Z,54.1
2022-12-03T04:16:41.850Z,54.1
2022-12-03T04:18:25.547Z,54.1
2022-12-03T04:20:09.235Z,54.1
2022-12-03T04:21:52.951Z,54.1
2022-12-03T04:23:36.654Z,54.1
2022-12-03T04:25:20.356Z,54.1
2022-12-03T04:27:04.116Z,54.1
2022-12-03T04:28:47.759Z,54.1
2022-12-03T04:30:31.469Z,54.1
2022-12-03T04:32:15.172Z,54.1
2022-12-03T04:33:58.877Z,54.1
2022-12-03T04:35:42.557Z,54.1
2022-12-03T04:37:26.268Z,54.1
2022-12-03T04:39:09.965Z,54.1
2022-12-03T04:40:53.730Z,54.1
2022-12-03T04:42:37.379Z,54
2022-12-03T04:44:21.080Z,54
2022-12-03T04:46:04.791Z,54.1
2022-12-03T04:47:48.493Z,54
2022-12-03T04:49:32.196Z,54
2022-12-03T04:51:15.892Z,54
2022-12-03T04:54:43.291Z,54
2022-12-03T04:56:27.003Z,54
2022-12-03T04:58:10.679Z,54
2022-12-03T04:59:54.392Z,54
2022-12-03T05:01:38.105Z,54
2022-12-03T05:03:21.855Z,54
2022-12-03T05:05:05.541Z,54
2022-12-03T05:06:49.212Z,54
2022-12-03T05:08:32.894Z,54
2022-12-03T05:10:16.596Z,54
2022-12-03T05:12:00.323Z,54
2022-12-03T05:13:44.020Z,54
2022-12-03T05:15:27.791Z,53.9
2022-12-03T05:17:11.420Z,53.9
2022-12-03T05:18:55.130Z,53.9
2022-12-03T05:20:38.858Z,53.9
2022-12-03T05:22:22.522Z,53.9
2022-12-03T05:24:06.238Z,53.9
2022-12-03T05:25:50.020Z,54
2022-12-03T05:27:33.670Z,53.9
2022-12-03T05:29:17.390Z,53.9
2022-12-03T05:31:01.025Z,53.9
2022-12-03T05:32:44.732Z,53.9
2022-12-03T05:34:28.459Z,53.9
2022-12-03T05:36:12.144Z,53.9
2022-12-03T05:37:55.845Z,53.9
2022-12-03T05:39:39.542Z,53.9
2022-12-03T05:41:23.249Z,53.9
2022-12-03T05:43:06.980Z,53.9
2022-12-03T05:44:50.686Z,53.9
2022-12-03T05:46:34.356Z,53.9
2022-12-03T05:48:18.054Z,53.9
2022-12-03T05:50:01.835Z,53.9
2022-12-03T05:51:45.457Z,53.9
2022-12-03T05:53:29.165Z,53.9
2022-12-03T05:55:12.902Z,53.8
2022-12-03T05:56:56.561Z,53.9
2022-12-03T05:58:40.275Z,53.9
2022-12-03T06:00:23.959Z,53.8
2022-12-03T06:02:07.673Z,53.8
2022-12-03T06:03:51.387Z,53.8
2022-12-03T06:05:35.093Z,53.8
2022-12-03T06:07:18.892Z,53.8
2022-12-03T06:09:02.493Z,53.9
2022-12-03T06:10:46.189Z,53.9
2022-12-03T06:12:29.892Z,53.9
2022-12-03T06:14:13.598Z,53.9
2022-12-03T06:15:57.296Z,53.8
2022-12-03T06:17:40.999Z,53.8
2022-12-03T06:19:24.699Z,53.8
2022-12-03T06:21:08.405Z,53.8
2022-12-03T06:22:52.111Z,53.8
2022-12-03T06:24:35.801Z,53.8
2022-12-03T06:26:19.495Z,53.8
2022-12-03T06:28:03.217Z,53.8
2022-12-03T06:29:46.922Z,53.8
2022-12-03T06:31:30.603Z,53.8
2022-12-03T06:33:14.395Z,53.8
2022-12-03T06:34:58.093Z,53.8
2022-12-03T06:36:41.729Z,53.8
2022-12-03T06:38:25.429Z,53.8
2022-12-03T06:40:09.135Z,53.8
2022-12-03T06:41:52.839Z,53.8
2022-12-03T06:43:36.635Z,53.8
2022-12-03T06:45:20.230Z,53.8
2022-12-03T06:47:04.062Z,53.8
2022-12-03T06:48:47.648Z,53.8
2022-12-03T06:50:31.430Z,53.8
2022-12-03T06:52:15.049Z,53.7
2022-12-03T06:53:58.751Z,53.7
2022-12-03T06:57:26.140Z,53.8
2022-12-03T06:59:09.850Z,53.7
2022-12-03T07:00:53.629Z,53.7
2022-12-03T07:02:37.241Z,53.8
2022-12-03T07:04:20.953Z,53.8
2022-12-03T07:06:04.675Z,53.7
2022-12-03T07:07:48.346Z,53.7
2022-12-03T07:09:32.169Z,53.7
2022-12-03T07:11:15.781Z,53.8
2022-12-03T07:12:59.443Z,53.7
2022-12-03T07:14:43.216Z,53.8
2022-12-03T07:16:26.862Z,53.7
2022-12-03T07:18:10.577Z,53.7
2022-12-03T07:19:54.383Z,53.7
2022-12-03T07:21:38.064Z,53.7
2022-12-03T07:23:21.659Z,53.7
2022-12-03T07:25:05.382Z,53.7
2022-12-03T07:26:49.121Z,53.7
2022-12-03T07:30:15.624Z,53.7
2022-12-03T07:31:59.300Z,53.7
2022-12-03T07:33:42.997Z,53.6
2022-12-03T07:35:26.643Z,53.6
2022-12-03T07:37:10.330Z,53.6
2022-12-03T07:38:54.053Z,53.6
2022-12-03T07:40:37.831Z,53.6
2022-12-03T07:42:21.493Z,53.5
2022-12-03T07:44:05.131Z,53.6
2022-12-03T07:45:48.830Z,53.5
2022-12-03T07:47:32.538Z,53.5
2022-12-03T07:49:16.316Z,53.5
2022-12-03T07:51:00.005Z,53.5
2022-12-03T07:52:43.715Z,53.5
2022-12-03T07:54:27.524Z,53.5
2022-12-03T07:56:11.104Z,53.5
2022-12-03T07:57:54.835Z,53.5
2022-12-03T07:59:38.506Z,53.5
2022-12-03T08:01:22.150Z,53.5
2022-12-03T08:03:05.972Z,53.5
2022-12-03T08:04:49.607Z,53.6
2022-12-03T08:06:33.418Z,53.5
2022-12-03T08:08:17.024Z,53.5
2022-12-03T08:10:00.751Z,53.5
2022-12-03T08:11:44.384Z,53.5
2022-12-03T08:13:28.090Z,53.5
2022-12-03T08:15:11.859Z,53.5
2022-12-03T08:16:55.616Z,53.5
2022-12-03T08:18:39.188Z,53.5
2022-12-03T08:20:22.893Z,53.5
2022-12-03T08:22:06.703Z,53.5
2022-12-03T08:23:50.407Z,53.5
2022-12-03T08:25:34.046Z,53.5
2022-12-03T08:27:17.879Z,53.5
2022-12-03T08:29:01.437Z,53.5
2022-12-03T08:30:45.113Z,53.5
2022-12-03T08:32:28.803Z,53.5
2022-12-03T08:34:12.512Z,53.5
2022-12-03T08:35:56.275Z,53.5
2022-12-03T08:37:39.924Z,53.4
2022-12-03T08:39:23.596Z,53.5
2022-12-03T08:41:07.312Z,53.4
2022-12-03T08:42:51.041Z,53.4
2022-12-03T08:44:34.705Z,53.3
2022-12-03T08:46:18.449Z,53.3
2022-12-03T08:48:02.110Z,53.3
2022-12-03T08:49:45.857Z,53.4
2022-12-03T08:51:29.551Z,53.4
2022-12-03T08:53:13.231Z,53.3
2022-12-03T08:54:56.928Z,53.3
2022-12-03T08:56:40.641Z,53.3
2022-12-03T08:58:24.334Z,53.3
2022-12-03T09:00:08.029Z,53.4
2022-12-03T09:01:51.725Z,53.4
2022-12-03T09:03:35.429Z,53.5
2022-12-03T09:05:19.142Z,53.5
2022-12-03T09:07:02.924Z,53.4
2022-12-03T09:08:46.610Z,53.5
2022-12-03T09:10:30.244Z,53.5
2022-12-03T09:12:13.948Z,53.5
2022-12-03T09:20:52.511Z,53.5
2022-12-03T09:22:36.252Z,53.5
2022-12-03T09:24:19.908Z,53.6
2022-12-03T09:26:03.640Z,53.9
2022-12-03T09:27:47.384Z,54.1
2022-12-03T09:29:31.034Z,55
2022-12-03T09:31:14.722Z,55.4
2022-12-03T09:32:58.477Z,55.4
2022-12-03T09:34:42.083Z,55.3
2022-12-03T09:36:25.813Z,55.3
2022-12-03T09:38:09.624Z,55.2
2022-12-03T09:39:53.235Z,55.1
2022-12-03T09:41:36.974Z,55.2
2022-12-03T09:43:20.651Z,55.3
2022-12-03T09:45:04.273Z,55.2
2022-12-03T09:46:48.124Z,55.1
2022-12-03T09:48:31.679Z,55.1
2022-12-03T09:50:15.450Z,55
2022-12-03T09:51:59.309Z,55
2022-12-03T09:53:42.791Z,55
2022-12-03T09:55:26.485Z,55.1
2022-12-03T09:57:10.320Z,55.2
2022-12-03T09:58:53.909Z,55.2
2022-12-03T10:09:16.102Z,55.1
2022-12-03T10:10:59.821Z,55.1
2022-12-03T10:12:43.536Z,55.1
2022-12-03T10:14:27.200Z,55
2022-12-03T10:16:10.905Z,54.8
2022-12-03T10:17:54.613Z,54.7
2022-12-03T10:19:38.405Z,54.7
2022-12-03T10:21:22.010Z,54.7
2022-12-03T10:23:05.711Z,54.6
2022-12-03T10:24:49.420Z,54.6
2022-12-03T10:26:33.142Z,54.6
2022-12-03T10:28:17.263Z,54.5
2022-12-03T10:30:00.534Z,54.5
2022-12-03T10:31:44.258Z,54.5
2022-12-03T10:33:27.941Z,54.5
2022-12-03T10:35:11.619Z,54.4
2022-12-03T10:36:55.342Z,54.4
2022-12-03T10:38:39.041Z,54.4
2022-12-03T10:40:22.754Z,54.4
2022-12-03T10:42:06.458Z,54.4
2022-12-03T10:43:50.149Z,54.3
2022-12-03T10:45:33.836Z,54.3
2022-12-03T10:47:17.563Z,54.3
2022-12-03T10:49:01.245Z,54.3
2022-12-03T10:50:44.950Z,54.3
2022-12-03T10:52:28.696Z,54.3
2022-12-03T10:54:12.355Z,54.3
2022-12-03T10:55:56.063Z,54.3
2022-12-03T10:57:39.772Z,54.3
2022-12-03T10:59:23.456Z,54.3
2022-12-03T11:01:07.179Z,54.3
2022-12-03T11:04:34.575Z,54.3
2022-12-03T11:06:18.264Z,54.3
2022-12-03T11:08:01.985Z,54.3
2022-12-03T11:09:45.689Z,54.3
2022-12-03T11:11:29.395Z,54.3
2022-12-03T11:13:13.077Z,54.3
2022-12-03T11:14:56.777Z,54.2
2022-12-03T11:16:40.482Z,54.2
2022-12-03T11:18:24.198Z,54.2
2022-12-03T11:20:07.914Z,54.2
2022-12-03T11:21:51.595Z,54.2
2022-12-03T11:23:35.290Z,54.2
2022-12-03T11:25:19.005Z,54.2
2022-12-03T11:27:02.699Z,54.2
2022-12-03T11:28:46.410Z,54.2
2022-12-03T11:30:30.116Z,54.2
2022-12-03T11:32:13.807Z,54.2
2022-12-03T11:33:57.522Z,54.2
2022-12-03T11:35:41.202Z,54.1
2022-12-03T11:37:24.922Z,54.2
2022-12-03T11:39:08.830Z,54.1
2022-12-03T11:40:52.312Z,54
2022-12-03T11:42:36.009Z,54
2022-12-03T11:44:19.725Z,54.1
2022-12-03T11:46:03.437Z,54.2
2022-12-03T11:47:47.160Z,54.2
2022-12-03T11:49:30.822Z,54.2
2022-12-03T11:51:14.529Z,54.2
2022-12-03T11:52:58.223Z,54.1
2022-12-03T11:54:41.952Z,54.2
2022-12-03T11:56:25.635Z,54.1
2022-12-03T11:58:09.329Z,54.2
2022-12-03T11:59:53.046Z,54.2
2022-12-03T12:01:36.741Z,54.2
2022-12-03T12:03:20.432Z,54.1
2022-12-03T12:05:04.139Z,54.1
2022-12-03T12:06:47.906Z,54.1
2022-12-03T12:08:31.559Z,54.2
2022-12-03T12:10:15.316Z,54.2
2022-12-03T12:11:58.948Z,54.1
2022-12-03T12:13:42.660Z,54.1
2022-12-03T12:15:26.361Z,54.1
2022-12-03T12:17:10.073Z,54.1
2022-12-03T12:18:53.758Z,54.2
2022-12-03T12:20:37.457Z,54
2022-12-03T12:22:21.190Z,54.1
2022-12-03T12:24:04.880Z,54.2
2022-12-03T12:25:48.572Z,54.2
2022-12-03T12:27:32.271Z,54.3
2022-12-03T12:29:15.982Z,54.4
2022-12-03T12:30:59.684Z,54.4
2022-12-03T12:32:43.375Z,54.4
2022-12-03T12:34:27.162Z,54.3
2022-12-03T12:36:10.768Z,54.4
2022-12-03T12:37:54.507Z,54.5
2022-12-03T12:39:38.193Z,54.5
2022-12-03T12:41:21.888Z,54.5
2022-12-03T12:43:05.697Z,54.3
2022-12-03T12:44:49.293Z,54.3
2022-12-03T12:46:32.998Z,54.2
2022-12-03T12:48:16.677Z,54
2022-12-03T12:50:00.408Z,54
2022-12-03T12:51:44.089Z,54
2022-12-03T12:53:27.786Z,54
2022-12-03T12:55:11.495Z,54
2022-12-03T12:56:55.199Z,54
2022-12-03T12:58:38.946Z,53.9
2022-12-03T13:00:22.599Z,53.9
2022-12-03T13:02:06.287Z,53.9
2022-12-03T13:03:50.110Z,53.8
2022-12-03T13:05:33.734Z,53.7
2022-12-03T13:07:17.430Z,53.7
2022-12-03T13:09:01.102Z,53.8
2022-12-03T13:10:44.809Z,53.8
2022-12-03T13:12:28.509Z,53.9
2022-12-03T13:14:12.207Z,53.8
2022-12-03T13:15:55.995Z,53.8
2022-12-03T13:17:39.626Z,53.8
2022-12-03T13:19:23.305Z,53.8
2022-12-03T13:21:07.019Z,53.8
2022-12-03T13:22:50.732Z,53.9
2022-12-03T13:24:34.419Z,53.9
2022-12-03T13:26:18.128Z,54
2022-12-03T13:28:01.924Z,54
2022-12-03T13:29:45.537Z,53.9
2022-12-03T13:31:29.235Z,54
2022-12-03T13:33:13.196Z,53.8
2022-12-03T13:34:56.808Z,53.9
2022-12-03T13:36:40.567Z,53.9
2022-12-03T13:38:24.221Z,53.9
2022-12-03T13:40:07.749Z,53.9
2022-12-03T13:41:51.541Z,53.6
2022-12-03T13:43:35.337Z,53.2
2022-12-03T13:45:19.085Z,53.5
2022-12-03T13:47:02.744Z,53.8
2022-12-03T13:48:46.457Z,53.9
2022-12-03T13:50:30.203Z,53.9
2022-12-03T13:52:13.859Z,53.9
2022-12-03T13:53:57.586Z,53.9
2022-12-03T13:55:41.270Z,53.9
2022-12-03T13:57:25.009Z,53.9
2022-12-03T13:59:08.633Z,53.8
2022-12-03T14:00:52.195Z,53.8
2022-12-03T14:02:35.999Z,53.9
2022-12-03T14:04:19.815Z,53.9
2022-12-03T14:06:03.283Z,54
2022-12-03T14:07:47.153Z,53.8
2022-12-03T14:09:30.865Z,53.6
2022-12-03T14:11:14.604Z,53.8
2022-12-03T14:12:58.236Z,53.8
2022-12-03T14:14:41.960Z,53.9
2022-12-03T15:14:39.405Z,55.3
2022-12-03T15:14:39.428Z,55.2
2022-12-03T15:15:11.456Z,55.3
2022-12-03T15:16:55.099Z,55.3
2022-12-03T15:18:38.857Z,55.3
2022-12-03T15:20:22.648Z,55.3
2022-12-03T15:22:10.368Z,55.4
2022-12-03T15:25:33.571Z,55.4
2022-12-03T15:27:17.393Z,55.5
2022-12-03T15:29:01.250Z,55.5
2022-12-03T15:30:44.857Z,55.7
2022-12-03T15:32:28.603Z,55.8
2022-12-03T15:34:12.231Z,55.9
2022-12-03T15:35:55.959Z,56.1
2022-12-03T15:37:39.743Z,56.2
2022-12-03T15:39:23.413Z,56.1
2022-12-03T15:41:07.123Z,56.2
2022-12-03T15:42:50.750Z,56.3
2022-12-03T15:44:34.437Z,56.2
2022-12-03T15:46:17.994Z,56.3
2022-12-03T15:48:01.981Z,56.9
2022-12-03T15:49:45.580Z,58.5
2022-12-03T15:51:29.119Z,58.4
2022-12-03T15:54:56.639Z,57.7
2022-12-03T15:56:40.225Z,57.7
2022-12-03T15:58:24.026Z,57.7
2022-12-03T16:00:07.646Z,57.6
2022-12-03T16:01:51.469Z,57.5
2022-12-03T16:03:35.226Z,57.5
2022-12-03T16:05:18.875Z,57.5
2022-12-03T16:07:02.653Z,57.5
2022-12-03T16:08:46.254Z,57.4
2022-12-03T16:10:29.864Z,57.3
2022-12-03T16:12:13.607Z,57.3
2022-12-03T16:13:57.428Z,57.2
2022-12-03T16:15:40.930Z,57.1
2022-12-03T16:17:24.684Z,57.1
2022-12-03T16:19:08.340Z,57.1
2022-12-03T16:20:52.146Z,57
2022-12-03T16:22:35.811Z,57
2022-12-03T16:26:03.215Z,56.8
2022-12-03T16:27:46.955Z,56.8
2022-12-03T16:29:30.539Z,56.7
2022-12-03T16:31:14.451Z,56.6
2022-12-03T16:32:58.115Z,56.6
2022-12-03T16:34:41.719Z,56.6
2022-12-03T16:36:25.455Z,56.6
2022-12-03T16:38:09.153Z,56.5
2022-12-03T16:39:52.738Z,56.5
2022-12-03T16:41:36.495Z,56.5
2022-12-03T16:43:20.172Z,56.4
2022-12-03T16:45:03.911Z,56.4
2022-12-03T16:46:47.687Z,56.3
2022-12-03T16:48:31.306Z,56.3
2022-12-03T16:50:14.956Z,56.3
2022-12-03T16:51:58.650Z,56.2
2022-12-03T16:53:42.413Z,56.1
2022-12-03T16:55:26.197Z,56.2
2022-12-03T16:57:09.742Z,56.5
2022-12-03T16:58:53.551Z,56.3
2022-12-03T17:00:37.230Z,56.2
2022-12-03T17:02:20.998Z,56.3
2022-12-03T17:04:04.702Z,56.1
2022-12-03T17:05:48.456Z,56.1
2022-12-03T17:07:32.146Z,56
2022-12-03T17:09:15.725Z,55.9
2022-12-03T17:10:59.556Z,56
2022-12-03T17:12:43.190Z,55.9
2022-12-03T17:14:26.948Z,55.9
2022-12-03T17:16:10.617Z,55.9
2022-12-03T17:17:54.324Z,55.9
2022-12-03T17:19:38.071Z,55.8
2022-12-03T17:21:21.792Z,55.8
2022-12-03T17:23:05.523Z,55.7
2022-12-03T17:24:49.160Z,55.7
2022-12-03T17:26:32.855Z,55.8
2022-12-03T17:28:16.573Z,55.8
2022-12-03T17:30:00.188Z,55.7
2022-12-03T17:31:43.970Z,55.7
2022-12-03T17:33:27.649Z,55.7
2022-12-03T17:35:11.228Z,55.7
2022-12-03T17:36:55.178Z,55.7
2022-12-03T17:38:38.773Z,55.6
2022-12-03T17:40:22.531Z,55.7
2022-12-03T17:42:06.035Z,55.6
2022-12-03T17:43:49.847Z,55.6
2022-12-03T17:45:33.586Z,55.6
2022-12-03T17:47:17.291Z,55.5
2022-12-03T17:49:00.972Z,55.6
2022-12-03T17:50:44.693Z,55.5
2022-12-03T17:52:28.372Z,55.6
2022-12-03T17:54:12.067Z,55.6
2022-12-03T17:55:55.846Z,55.6
2022-12-03T17:57:39.473Z,55.6
2022-12-03T17:59:23.202Z,55.6
2022-12-03T18:01:06.888Z,55.6
2022-12-03T18:02:50.583Z,55.6
2022-12-03T18:04:34.172Z,55.6
2022-12-03T18:06:18.023Z,55.5
2022-12-03T18:08:01.588Z,55.5
2022-12-03T18:09:45.384Z,55.5
2022-12-03T18:11:29.073Z,55.5
2022-12-03T18:13:12.784Z,55.5
2022-12-03T18:14:56.439Z,55.4
2022-12-03T18:16:40.227Z,55.4
2022-12-03T18:18:23.916Z,55.4
2022-12-03T18:20:07.542Z,55.4
2022-12-03T18:21:51.300Z,55.3
2022-12-03T18:23:34.919Z,55.3
2022-12-03T18:25:18.735Z,55.3
2022-12-03T18:27:02.279Z,55.3
2022-12-03T18:28:46.093Z,55.3
2022-12-03T18:30:29.701Z,55.2
2022-12-03T18:32:13.435Z,55.2
2022-12-03T18:33:57.136Z,55.2
2022-12-03T18:35:40.818Z,55.2
2022-12-03T18:37:24.505Z,55.2
2022-12-03T18:39:08.218Z,55.2
2022-12-03T18:42:35.758Z,55.2
2022-12-03T18:44:19.403Z,55.2
2022-12-03T18:46:03.127Z,55.1
2022-12-03T18:47:46.837Z,55.2
2022-12-03T18:49:30.413Z,55
2022-12-03T18:51:14.170Z,55.1
2022-12-03T18:52:57.979Z,55
2022-12-03T18:54:41.581Z,55
2022-12-03T18:56:25.282Z,55
2022-12-03T18:58:08.921Z,55
2022-12-03T18:59:52.780Z,54.9
2022-12-03T19:01:36.387Z,55
2022-12-03T19:03:20.121Z,55
2022-12-03T19:05:03.930Z,55.1
2022-12-03T19:06:47.441Z,55
2022-12-03T19:08:31.267Z,55.1
2022-12-03T19:10:14.847Z,55.1
2022-12-03T19:11:58.532Z,55
2022-12-03T19:13:42.258Z,55
2022-12-03T19:15:26.118Z,55
2022-12-03T19:17:09.756Z,55
2022-12-03T19:18:53.439Z,55
2022-12-03T19:20:37.188Z,54.9
2022-12-03T19:22:20.859Z,54.9
2022-12-03T19:24:04.528Z,54.9
2022-12-03T19:25:48.301Z,54.9
2022-12-03T19:27:32.064Z,54.9
2022-12-03T19:29:15.559Z,54.9
2022-12-03T19:30:59.307Z,54.9
2022-12-03T19:32:42.960Z,54.8
2022-12-03T19:34:26.772Z,54.8
2022-12-03T19:36:10.372Z,54.9
2022-12-03T19:37:54.169Z,54.9
2022-12-03T19:39:37.892Z,54.8
2022-12-03T19:41:21.483Z,54.8
2022-12-03T19:43:05.258Z,54.8
2022-12-03T19:44:48.877Z,54.9
2022-12-03T19:46:32.569Z,54.9
2022-12-03T19:48:16.386Z,54.8
2022-12-03T19:50:00.049Z,54.7
2022-12-03T19:51:43.759Z,54.8
2022-12-03T19:53:27.397Z,54.8
2022-12-03T19:55:11.083Z,54.7
2022-12-03T19:56:54.864Z,54.7
2022-12-03T19:58:38.566Z,54.7
2022-12-03T20:00:22.230Z,54.7
2022-12-03T20:02:06.010Z,54.7
2022-12-03T20:03:49.653Z,54.7
2022-12-03T20:05:33.312Z,54.7
2022-12-03T20:07:17.010Z,54.7
2022-12-03T20:09:00.699Z,54.7
2022-12-03T20:10:44.461Z,54.6
2022-12-03T20:12:28.152Z,54.6
2022-12-03T20:14:11.805Z,54.7
2022-12-03T20:15:55.590Z,54.6
2022-12-03T20:17:39.278Z,54.6
2022-12-03T20:19:23.038Z,54.6
2022-12-03T20:21:06.628Z,54.6
2022-12-03T20:22:50.353Z,54.6
2022-12-03T20:24:34.092Z,54.5
2022-12-03T20:26:17.772Z,54.5
2022-12-03T20:28:01.425Z,54.5
2022-12-03T20:29:45.130Z,54.6
2022-12-03T20:31:28.932Z,54.6
2022-12-03T20:33:12.540Z,54.5
2022-12-03T20:34:56.403Z,54.5
2022-12-03T20:36:39.969Z,54.5
2022-12-03T20:38:23.657Z,54.5
2022-12-03T20:40:07.414Z,54.5
2022-12-03T20:41:51.186Z,54.5
2022-12-03T20:43:34.768Z,54.6
2022-12-03T20:45:18.517Z,54.6
2022-12-03T20:47:02.207Z,54.6
2022-12-03T20:48:45.889Z,54.5
2022-12-03T20:50:29.572Z,54.5
2022-12-03T20:52:13.267Z,54.5
2022-12-03T20:53:56.960Z,54.5
2022-12-03T20:55:40.687Z,54.5
2022-12-03T20:57:24.438Z,54.5
2022-12-03T20:59:08.076Z,54.4
2022-12-03T21:00:51.761Z,54.5
2022-12-03T21:02:35.580Z,54.6
2022-12-03T21:04:19.187Z,54.8
2022-12-03T21:06:02.911Z,54.7
2022-12-03T21:07:46.684Z,54.6
2022-12-03T21:09:30.284Z,54.6
2022-12-03T21:11:13.974Z,54.6
2022-12-03T21:12:57.729Z,54.5
2022-12-03T21:14:41.449Z,54.5
2022-12-03T21:16:25.088Z,54.5
2022-12-03T21:18:08.911Z,54.5
2022-12-03T21:19:52.472Z,54.5
2022-12-03T21:21:36.170Z,54.5
2022-12-03T21:23:19.971Z,54.5
2022-12-03T21:25:03.586Z,54.5
2022-12-03T21:26:47.373Z,54.5
2022-12-03T21:28:30.999Z,54.4
2022-12-03T21:30:14.703Z,54.4
2022-12-03T21:31:58.511Z,54.4
2022-12-03T22:23:49.526Z,54.3
2022-12-03T22:25:33.198Z,54.3
2022-12-03T22:27:16.902Z,54.3
2022-12-03T22:29:00.663Z,54.4
2022-12-03T22:30:44.427Z,54.3
2022-12-03T22:32:27.922Z,54.3
2022-12-03T22:34:11.618Z,54.3
2022-12-03T22:35:55.412Z,54.3
2022-12-03T22:37:39.034Z,54.3
2022-12-03T22:39:22.810Z,54.3
2022-12-03T22:41:06.524Z,54.3
2022-12-03T22:42:50.161Z,54.3
2022-12-03T22:44:34.087Z,54.3
2022-12-03T22:46:17.642Z,54.3
2022-12-03T22:48:01.313Z,54.3
2022-12-03T22:49:44.979Z,54.3
2022-12-03T22:51:28.722Z,54.3
2022-12-03T22:53:12.414Z,54.3
2022-12-03T22:54:56.182Z,54.3
2022-12-03T22:56:39.996Z,54.3
2022-12-03T22:58:23.454Z,54.3
2022-12-03T23:00:07.197Z,54.3
2022-12-03T23:01:50.899Z,54.3
2022-12-03T23:03:34.682Z,54.3
2022-12-03T23:05:18.363Z,54.2
2022-12-03T23:07:02.054Z,54.3
2022-12-03T23:08:45.661Z,54.2
2022-12-03T23:10:29.494Z,54.2
2022-12-03T23:12:13.159Z,54.2
2022-12-03T23:13:56.905Z,54.2
2022-12-03T23:15:40.497Z,54.2
2022-12-03T23:17:24.173Z,54.3
2022-12-03T23:19:07.883Z,54.3
2022-12-03T23:20:51.618Z,54.3
2022-12-03T23:22:35.274Z,54.3
2022-12-03T23:24:19.065Z,54
2022-12-03T23:26:02.706Z,54
2022-12-03T23:27:46.383Z,54.3
2022-12-03T23:29:30.096Z,54.3
2022-12-03T23:31:13.781Z,54.3
2022-12-03T23:32:57.481Z,54.4
2022-12-03T23:34:41.217Z,54.4
2022-12-03T23:36:24.922Z,54.4
2022-12-03T23:38:08.590Z,54.4
2022-12-03T23:39:52.319Z,54.5
2022-12-03T23:41:36.074Z,54.4
2022-12-03T23:43:19.721Z,54.4
2022-12-03T23:45:03.407Z,54.4
2022-12-03T23:46:47.153Z,54.4
2022-12-03T23:50:14.557Z,54.4
2022-12-03T23:51:58.229Z,54.4
2022-12-03T23:53:41.900Z,54.3
2022-12-03T23:55:25.675Z,54.3
2022-12-03T23:57:09.280Z,54.3
2022-12-03T23:58:53.056Z,54.3
